logo
Rechercher aéroport 
image banner adimage banner adimage banner ad
image banner ad

NWWW - Noumea La Tontouta

Situé à Noumea (Nouvelle-Caledonie), New Caledonia

ICAO - NWWW, IATA - NOU

Données fournies par Airmate  

Information générale

Coordonnées: S22°0'52" E166°12'47"
Élévation : 51 feet MSL.
Variation magnétique : 12.36° East
Voir autres Aéroports à (unassigned)

Données opérationnelles

Special qualification required
Heure actuelle UTC:
Heure actuelle locale:
Météo
METAR: NWWW 220330Z AUTO VRB03KT CAVOK 23/15 Q1016 NOSIG
Voir NOTAMs / SUP AIP / TFR affectant cet aéroport [VIEW]
Fréquences de communication: [VIEW]

Pistes:

Identifiant RWYQFULongueur (ft)Largeur (ft)SurfaceLDA (ft)
11121°10663148ASPH10663
29301°10663148ASPH10663

Coordonnées de l'aéroport

Adresse: Noumea (Nouvelle-Caledonie) New Caledonia

Vue satellite de NWWW